sensor_id;sensor_type;location;lat;lon;timestamp;pressure;altitude;pressure_sealevel;temperature;humidity
60854;BME280;48554;50.766;2.900;2022-07-12T00:00:56;101769.00;;;24.93;49.95
60854;BME280;48554;50.766;2.900;2022-07-12T00:03:16;101766.53;;;24.92;49.91
60854;BME280;48554;50.766;2.900;2022-07-12T00:05:37;101771.97;;;24.92;50.19
60854;BME280;48554;50.766;2.900;2022-07-12T00:07:57;101772.25;;;24.90;50.02
60854;BME280;48554;50.766;2.900;2022-07-12T00:10:17;101769.53;;;24.90;49.88
60854;BME280;48554;50.766;2.900;2022-07-12T00:12:38;101772.78;;;24.92;49.93
60854;BME280;48554;50.766;2.900;2022-07-12T00:14:59;101764.94;;;24.91;49.72
60854;BME280;48554;50.766;2.900;2022-07-12T00:17:19;101761.66;;;24.89;49.75
60854;BME280;48554;50.766;2.900;2022-07-12T00:19:39;101767.09;;;24.89;49.71
60854;BME280;48554;50.766;2.900;2022-07-12T00:21:59;101760.06;;;24.88;49.81
60854;BME280;48554;50.766;2.900;2022-07-12T00:24:20;101752.72;;;24.88;49.78
60854;BME280;48554;50.766;2.900;2022-07-12T00:26:40;101769.00;;;24.88;49.79
60854;BME280;48554;50.766;2.900;2022-07-12T00:29:00;101761.66;;;24.89;50.01
60854;BME280;48554;50.766;2.900;2022-07-12T00:31:20;101762.22;;;24.91;49.93
60854;BME280;48554;50.766;2.900;2022-07-12T00:33:41;101762.22;;;24.91;49.66
60854;BME280;48554;50.766;2.900;2022-07-12T00:36:01;101758.97;;;24.89;49.80
60854;BME280;48554;50.766;2.900;2022-07-12T00:38:21;101761.66;;;24.89;49.57
60854;BME280;48554;50.766;2.900;2022-07-12T00:40:42;101758.97;;;24.89;49.84
60854;BME280;48554;50.766;2.900;2022-07-12T00:43:02;101762.22;;;24.91;49.69
60854;BME280;48554;50.766;2.900;2022-07-12T00:45:22;101757.59;;;24.91;49.54
60854;BME280;48554;50.766;2.900;2022-07-12T00:47:44;101762.22;;;24.91;49.37
60854;BME280;48554;50.766;2.900;2022-07-12T00:50:07;101762.22;;;24.91;49.52
60854;BME280;48554;50.766;2.900;2022-07-12T00:52:27;101756.00;;;24.90;49.35
60854;BME280;48554;50.766;2.900;2022-07-12T00:54:48;101761.13;;;24.87;48.93
60854;BME280;48554;50.766;2.900;2022-07-12T00:57:08;101756.50;;;24.82;49.27
60854;BME280;48554;50.766;2.900;2022-07-12T00:59:28;101754.91;;;24.81;49.14
60854;BME280;48554;50.766;2.900;2022-07-12T01:01:48;101757.34;;;24.83;49.06
60854;BME280;48554;50.766;2.900;2022-07-12T01:04:09;101756.25;;;24.84;48.97
60854;BME280;48554;50.766;2.900;2022-07-12T01:06:30;101757.88;;;24.80;49.09
60854;BME280;48554;50.766;2.900;2022-07-12T01:08:50;101754.38;;;24.74;49.44
60854;BME280;48554;50.766;2.900;2022-07-12T01:11:11;101755.72;;;24.71;49.47
60854;BME280;48554;50.766;2.900;2022-07-12T01:13:32;101749.75;;;24.74;49.12
60854;BME280;48554;50.766;2.900;2022-07-12T01:15:53;101754.38;;;24.74;49.24
60854;BME280;48554;50.766;2.900;2022-07-12T01:18:13;101747.03;;;24.69;49.64
60854;BME280;48554;50.766;2.900;2022-07-12T01:20:34;101747.03;;;24.69;49.17
60854;BME280;48554;50.766;2.900;2022-07-12T01:22:56;101748.13;;;24.68;49.37
60854;BME280;48554;50.766;2.900;2022-07-12T01:25:16;101760.03;;;24.67;49.33
60854;BME280;48554;50.766;2.900;2022-07-12T01:27:37;101757.34;;;24.67;50.01
60854;BME280;48554;50.766;2.900;2022-07-12T01:29:58;101759.25;;;24.67;49.04
60854;BME280;48554;50.766;2.900;2022-07-12T01:32:18;101759.50;;;24.65;49.04
60854;BME280;48554;50.766;2.900;2022-07-12T01:34:38;101764.66;;;24.67;48.87
60854;BME280;48554;50.766;2.900;2022-07-12T01:36:59;101765.75;;;24.66;49.02
60854;BME280;48554;50.766;2.900;2022-07-12T01:39:20;101760.59;;;24.64;48.78
60854;BME280;48554;50.766;2.900;2022-07-12T01:41:40;101757.88;;;24.64;48.45
60854;BME280;48554;50.766;2.900;2022-07-12T01:44:01;101761.94;;;24.62;48.89
60854;BME280;48554;50.766;2.900;2022-07-12T01:46:21;101767.63;;;24.65;48.29
60854;BME280;48554;50.766;2.900;2022-07-12T01:48:41;101766.81;;;24.65;48.77
60854;BME280;48554;50.766;2.900;2022-07-12T01:51:02;101757.34;;;24.62;48.76
60854;BME280;48554;50.766;2.900;2022-07-12T01:53:23;101760.34;;;24.61;48.50
60854;BME280;48554;50.766;2.900;2022-07-12T01:55:43;101760.34;;;24.61;48.65
60854;BME280;48554;50.766;2.900;2022-07-12T01:58:03;101752.47;;;24.59;49.22
60854;BME280;48554;50.766;2.900;2022-07-12T02:00:24;101757.88;;;24.59;48.56
60854;BME280;48554;50.766;2.900;2022-07-12T02:02:45;101754.91;;;24.61;48.76
60854;BME280;48554;50.766;2.900;2022-07-12T02:05:06;101745.69;;;24.62;48.65
60854;BME280;48554;50.766;2.900;2022-07-12T02:07:26;101757.88;;;24.69;48.29
60854;BME280;48554;50.766;2.900;2022-07-12T02:09:46;101768.72;;;24.69;48.56
60854;BME280;48554;50.766;2.900;2022-07-12T02:12:07;101764.41;;;24.73;48.06
60854;BME280;48554;50.766;2.900;2022-07-12T02:14:27;101763.31;;;24.69;48.26
60854;BME280;48554;50.766;2.900;2022-07-12T02:16:47;101751.91;;;24.72;48.08
60854;BME280;48554;50.766;2.900;2022-07-12T02:19:09;101752.22;;;24.66;48.31
60854;BME280;48554;50.766;2.900;2022-07-12T02:21:29;101758.97;;;24.68;48.24
60854;BME280;48554;50.766;2.900;2022-07-12T02:23:49;101754.63;;;24.67;48.31
60854;BME280;48554;50.766;2.900;2022-07-12T02:26:09;101760.88;;;24.68;48.43
60854;BME280;48554;50.766;2.900;2022-07-12T02:28:30;101757.06;;;24.64;48.50
60854;BME280;48554;50.766;2.900;2022-07-12T02:30:50;101750.84;;;24.58;48.36
60854;BME280;48554;50.766;2.900;2022-07-12T02:33:10;101760.34;;;24.61;48.21
60854;BME280;48554;50.766;2.900;2022-07-12T02:35:30;101760.59;;;24.59;48.29
60854;BME280;48554;50.766;2.900;2022-07-12T02:37:51;101757.34;;;24.62;48.20
60854;BME280;48554;50.766;2.900;2022-07-12T02:40:11;101755.97;;;24.60;48.07
60854;BME280;48554;50.766;2.900;2022-07-12T02:42:31;101758.97;;;24.58;48.14
60854;BME280;48554;50.766;2.900;2022-07-12T02:44:52;101752.19;;;24.55;48.41
60854;BME280;48554;50.766;2.900;2022-07-12T02:47:12;101748.13;;;24.53;48.39
60854;BME280;48554;50.766;2.900;2022-07-12T02:49:32;101745.16;;;24.49;48.29
60854;BME280;48554;50.766;2.900;2022-07-12T02:51:52;101751.91;;;24.52;48.32
60854;BME280;48554;50.766;2.900;2022-07-12T02:54:13;101757.59;;;24.55;48.27
60854;BME280;48554;50.766;2.900;2022-07-12T02:56:33;101761.66;;;24.53;48.25
60854;BME280;48554;50.766;2.900;2022-07-12T02:58:53;101760.03;;;24.47;48.10
60854;BME280;48554;50.766;2.900;2022-07-12T03:01:13;101762.19;;;24.45;48.03
60854;BME280;48554;50.766;2.900;2022-07-12T03:03:34;101755.16;;;24.44;48.12
60854;BME280;48554;50.766;2.900;2022-07-12T03:05:54;101764.34;;;24.43;48.35
60854;BME280;48554;50.766;2.900;2022-07-12T03:08:14;101762.72;;;24.42;48.55
60854;BME280;48554;50.766;2.900;2022-07-12T03:10:35;101758.38;;;24.41;48.41
60854;BME280;48554;50.766;2.900;2022-07-12T03:12:55;101761.06;;;24.41;48.25
60854;BME280;48554;50.766;2.900;2022-07-12T03:15:15;101762.72;;;24.42;48.13
60854;BME280;48554;50.766;2.900;2022-07-12T03:17:36;101761.06;;;24.41;48.37
60854;BME280;48554;50.766;2.900;2022-07-12T03:19:56;101762.44;;;24.38;48.27
60854;BME280;48554;50.766;2.900;2022-07-12T03:22:16;101759.16;;;24.36;48.19
60854;BME280;48554;50.766;2.900;2022-07-12T03:24:36;101768.13;;;24.37;48.01
60854;BME280;48554;50.766;2.900;2022-07-12T03:26:57;101760.53;;;24.33;48.12
60854;BME280;48554;50.766;2.900;2022-07-12T03:29:17;101768.94;;;24.32;48.10
60854;BME280;48554;50.766;2.900;2022-07-12T03:31:37;101771.34;;;24.33;48.42
60854;BME280;48554;50.766;2.900;2022-07-12T03:33:57;101769.75;;;24.32;48.48
60854;BME280;48554;50.766;2.900;2022-07-12T03:36:18;101767.03;;;24.27;48.21
60854;BME280;48554;50.766;2.900;2022-07-12T03:38:38;101772.44;;;24.27;48.11
60854;BME280;48554;50.766;2.900;2022-07-12T03:40:58;101774.06;;;24.28;48.50
60854;BME280;48554;50.766;2.900;2022-07-12T03:43:18;101774.06;;;24.28;48.45
60854;BME280;48554;50.766;2.900;2022-07-12T03:45:39;101772.44;;;24.27;48.50
60854;BME280;48554;50.766;2.900;2022-07-12T03:47:59;101774.59;;;24.25;48.21
60854;BME280;48554;50.766;2.900;2022-07-12T03:50:19;101780.81;;;24.26;48.07
60854;BME280;48554;50.766;2.900;2022-07-12T03:52:41;101773.00;;;24.24;48.22
60854;BME280;48554;50.766;2.900;2022-07-12T03:55:02;101776.50;;;24.25;48.50
60854;BME280;48554;50.766;2.900;2022-07-12T03:57:22;101776.78;;;24.33;48.75
60854;BME280;48554;50.766;2.900;2022-07-12T03:59:44;101780.31;;;24.39;48.48
60854;BME280;48554;50.766;2.900;2022-07-12T04:02:04;101781.69;;;24.37;48.65
60854;BME280;48554;50.766;2.900;2022-07-12T04:04:24;101783.84;;;24.34;48.59
60854;BME280;48554;50.766;2.900;2022-07-12T04:06:45;101789.25;;;24.34;48.42
60854;BME280;48554;50.766;2.900;2022-07-12T04:09:06;101791.16;;;24.39;48.34
60854;BME280;48554;50.766;2.900;2022-07-12T04:11:26;101790.06;;;24.40;48.44
60854;BME280;48554;50.766;2.900;2022-07-12T04:13:46;101794.13;;;24.43;48.06
60854;BME280;48554;50.766;2.900;2022-07-12T04:16:06;101797.66;;;24.43;48.14
60854;BME280;48554;50.766;2.900;2022-07-12T04:18:27;101790.34;;;24.39;48.27
60854;BME280;48554;50.766;2.900;2022-07-12T04:20:47;101798.44;;;24.33;48.65
60854;BME280;48554;50.766;2.900;2022-07-12T04:23:07;101796.28;;;24.35;48.33
60854;BME280;48554;50.766;2.900;2022-07-12T04:25:27;101795.72;;;24.33;48.17
60854;BME280;48554;50.766;2.900;2022-07-12T04:27:48;101797.63;;;24.33;48.24
60854;BME280;48554;50.766;2.900;2022-07-12T04:30:08;101793.03;;;24.33;48.40
60854;BME280;48554;50.766;2.900;2022-07-12T04:32:29;101800.09;;;24.34;48.48
60854;BME280;48554;50.766;2.900;2022-07-12T04:34:49;101805.22;;;24.36;48.53
60854;BME280;48554;50.766;2.900;2022-07-12T04:37:09;101804.69;;;24.34;48.24
60854;BME280;48554;50.766;2.900;2022-07-12T04:39:30;101805.22;;;24.31;48.46
60854;BME280;48554;50.766;2.900;2022-07-12T04:41:50;101804.41;;;24.30;48.35
60854;BME280;48554;50.766;2.900;2022-07-12T04:44:10;101805.19;;;24.26;48.60
60854;BME280;48554;50.766;2.900;2022-07-12T04:46:31;101806.56;;;24.28;48.22
60854;BME280;48554;50.766;2.900;2022-07-12T04:48:51;101809.28;;;24.33;48.46
60854;BME280;48554;50.766;2.900;2022-07-12T04:51:11;101810.38;;;24.27;48.64
60854;BME280;48554;50.766;2.900;2022-07-12T04:53:31;101803.34;;;24.26;48.56
60854;BME280;48554;50.766;2.900;2022-07-12T04:55:54;101807.91;;;24.26;48.63
60854;BME280;48554;50.766;2.900;2022-07-12T04:58:14;101805.19;;;24.26;48.85
60854;BME280;48554;50.766;2.900;2022-07-12T05:00:34;101796.81;;;24.27;48.42
60854;BME280;48554;50.766;2.900;2022-07-12T05:02:55;101801.69;;;24.25;48.74
60854;BME280;48554;50.766;2.900;2022-07-12T05:05:15;101798.97;;;24.25;48.59
60854;BME280;48554;50.766;2.900;2022-07-12T05:07:35;101797.38;;;24.34;48.67
60854;BME280;48554;50.766;2.900;2022-07-12T05:09:56;101787.09;;;24.37;48.89
60854;BME280;48554;50.766;2.900;2022-07-12T05:12:16;101797.94;;;24.37;49.31
60854;BME280;48554;50.766;2.900;2022-07-12T05:14:37;101801.72;;;24.41;49.26
60854;BME280;48554;50.766;2.900;2022-07-12T05:16:57;101809.84;;;24.41;48.89
60854;BME280;48554;50.766;2.900;2022-07-12T05:19:17;101807.69;;;24.43;49.11
60854;BME280;48554;50.766;2.900;2022-07-12T05:21:37;101816.91;;;24.42;49.24
60854;BME280;48554;50.766;2.900;2022-07-12T05:23:58;101821.22;;;24.43;48.93
60854;BME280;48554;50.766;2.900;2022-07-12T05:26:18;101823.69;;;24.44;48.81
60854;BME280;48554;50.766;2.900;2022-07-12T05:28:38;101820.41;;;24.42;49.54
60854;BME280;48554;50.766;2.900;2022-07-12T05:30:59;101824.47;;;24.40;49.67
60854;BME280;48554;50.766;2.900;2022-07-12T05:33:19;101822.84;;;24.39;49.42
60854;BME280;48554;50.766;2.900;2022-07-12T05:35:39;101810.91;;;24.34;49.37
60854;BME280;48554;50.766;2.900;2022-07-12T05:38:00;101814.69;;;24.33;49.94
60854;BME280;48554;50.766;2.900;2022-07-12T05:40:20;101812.84;;;24.39;49.27
60854;BME280;48554;50.766;2.900;2022-07-12T05:42:40;101811.47;;;24.42;49.39
60854;BME280;48554;50.766;2.900;2022-07-12T05:45:00;101819.66;;;24.47;51.82
60854;BME280;48554;50.766;2.900;2022-07-12T05:47:21;101814.75;;;24.44;53.69
60854;BME280;48554;50.766;2.900;2022-07-12T05:49:41;101814.75;;;24.44;54.29
60854;BME280;48554;50.766;2.900;2022-07-12T05:52:01;101824.75;;;24.43;54.67
60854;BME280;48554;50.766;2.900;2022-07-12T05:54:22;101832.06;;;24.43;54.20
60854;BME280;48554;50.766;2.900;2022-07-12T05:56:42;101826.38;;;24.44;54.30
60854;BME280;48554;50.766;2.900;2022-07-12T05:59:02;101823.41;;;24.46;54.10
60854;BME280;48554;50.766;2.900;2022-07-12T06:01:23;101825.56;;;24.44;53.16
60854;BME280;48554;50.766;2.900;2022-07-12T06:03:43;101817.69;;;24.42;52.93
60854;BME280;48554;50.766;2.900;2022-07-12T06:06:03;101823.66;;;24.39;52.63
60854;BME280;48554;50.766;2.900;2022-07-12T06:08:23;101826.38;;;24.39;52.25
60854;BME280;48554;50.766;2.900;2022-07-12T06:10:44;101831.50;;;24.41;52.09
60854;BME280;48554;50.766;2.900;2022-07-12T06:13:04;101833.69;;;24.39;52.06
60854;BME280;48554;50.766;2.900;2022-07-12T06:15:24;101836.91;;;24.41;52.12
60854;BME280;48554;50.766;2.900;2022-07-12T06:17:45;101835.31;;;24.40;51.97
60854;BME280;48554;50.766;2.900;2022-07-12T06:20:05;101836.13;;;24.40;51.79
60854;BME280;48554;50.766;2.900;2022-07-12T06:22:26;101843.97;;;24.42;51.69
60854;BME280;48554;50.766;2.900;2022-07-12T06:24:46;101843.44;;;24.45;51.63
60854;BME280;48554;50.766;2.900;2022-07-12T06:27:06;101841.28;;;24.42;51.66
60854;BME280;48554;50.766;2.900;2022-07-12T06:29:26;101843.44;;;24.45;51.39
60854;BME280;48554;50.766;2.900;2022-07-12T06:31:46;101853.47;;;24.44;51.71
60854;BME280;48554;50.766;2.900;2022-07-12T06:34:07;101853.19;;;24.41;51.86
60854;BME280;48554;50.766;2.900;2022-07-12T06:36:27;101849.66;;;24.35;52.01
60854;BME280;48554;50.766;2.900;2022-07-12T06:38:47;101849.66;;;24.35;51.72
60854;BME280;48554;50.766;2.900;2022-07-12T06:41:07;101845.03;;;24.35;51.88
60854;BME280;48554;50.766;2.900;2022-07-12T06:43:28;101838.00;;;24.34;51.89
60854;BME280;48554;50.766;2.900;2022-07-12T06:45:48;101843.97;;;24.31;51.80
60854;BME280;48554;50.766;2.900;2022-07-12T06:48:08;101854.25;;;24.34;51.84
60854;BME280;48554;50.766;2.900;2022-07-12T06:50:29;101836.91;;;24.35;52.06
60854;BME280;48554;50.766;2.900;2022-07-12T06:52:49;101841.78;;;24.33;51.91
60854;BME280;48554;50.766;2.900;2022-07-12T06:55:09;101851.00;;;24.38;51.90
60854;BME280;48554;50.766;2.900;2022-07-12T06:57:29;101844.78;;;24.37;51.86
60854;BME280;48554;50.766;2.900;2022-07-12T06:59:50;101848.31;;;24.38;51.79
60854;BME280;48554;50.766;2.900;2022-07-12T07:02:10;101853.19;;;24.41;51.87
60854;BME280;48554;50.766;2.900;2022-07-12T07:04:30;101847.75;;;24.41;51.89
60854;BME280;48554;50.766;2.900;2022-07-12T07:06:51;101852.66;;;24.39;51.85
60854;BME280;48554;50.766;2.900;2022-07-12T07:09:11;101850.47;;;24.41;51.81
60854;BME280;48554;50.766;2.900;2022-07-12T07:11:32;101853.47;;;24.44;51.66
60854;BME280;48554;50.766;2.900;2022-07-12T07:13:52;101854.28;;;24.40;51.89
60854;BME280;48554;50.766;2.900;2022-07-12T07:16:12;101854.81;;;24.42;51.65
60854;BME280;48554;50.766;2.900;2022-07-12T07:18:32;101851.03;;;24.43;52.30
60854;BME280;48554;50.766;2.900;2022-07-12T07:20:53;101850.50;;;24.46;51.97
60854;BME280;48554;50.766;2.900;2022-07-12T07:23:13;101845.66;;;24.48;51.76
60854;BME280;48554;50.766;2.900;2022-07-12T07:25:33;101848.34;;;24.48;51.91
60854;BME280;48554;50.766;2.900;2022-07-12T07:27:53;101853.78;;;24.48;51.75
60854;BME280;48554;50.766;2.900;2022-07-12T07:30:14;101851.59;;;24.50;51.62
60854;BME280;48554;50.766;2.900;2022-07-12T07:32:34;101859.47;;;24.51;51.63
60854;BME280;48554;50.766;2.900;2022-07-12T07:34:54;101857.84;;;24.50;51.70
60854;BME280;48554;50.766;2.900;2022-07-12T07:37:15;101850.56;;;24.51;51.62
60854;BME280;48554;50.766;2.900;2022-07-12T07:39:35;101847.28;;;24.54;51.37
60854;BME280;48554;50.766;2.900;2022-07-12T07:41:55;101847.28;;;24.54;51.56
60854;BME280;48554;50.766;2.900;2022-07-12T07:44:16;101847.28;;;24.54;51.24
60854;BME280;48554;50.766;2.900;2022-07-12T07:46:36;101857.59;;;24.57;51.63
60854;BME280;48554;50.766;2.900;2022-07-12T07:48:56;101850.25;;;24.58;52.00
60854;BME280;48554;50.766;2.900;2022-07-12T07:51:16;101849.19;;;24.59;51.21
60854;BME280;48554;50.766;2.900;2022-07-12T07:53:37;101847.31;;;24.59;51.34
60854;BME280;48554;50.766;2.900;2022-07-12T07:55:57;101848.41;;;24.58;51.83
60854;BME280;48554;50.766;2.900;2022-07-12T07:58:17;101844.34;;;24.61;51.38
60854;BME280;48554;50.766;2.900;2022-07-12T08:00:39;101844.34;;;24.61;51.19
60854;BME280;48554;50.766;2.900;2022-07-12T08:02:59;101850.56;;;24.66;51.57
60854;BME280;48554;50.766;2.900;2022-07-12T08:05:19;101851.66;;;24.70;50.99
60854;BME280;48554;50.766;2.900;2022-07-12T08:07:40;101858.16;;;24.74;50.94
60854;BME280;48554;50.766;2.900;2022-07-12T08:10:00;101856.00;;;24.76;51.09
60854;BME280;48554;50.766;2.900;2022-07-12T08:12:20;101853.84;;;24.78;50.52
60854;BME280;48554;50.766;2.900;2022-07-12T08:14:40;101858.16;;;24.80;50.55
60854;BME280;48554;50.766;2.900;2022-07-12T08:17:01;101854.94;;;24.83;50.63
60854;BME280;48554;50.766;2.900;2022-07-12T08:19:21;101847.88;;;24.82;50.32
60854;BME280;48554;50.766;2.900;2022-07-12T08:21:42;101840.81;;;24.81;50.14
60854;BME280;48554;50.766;2.900;2022-07-12T08:24:02;101828.88;;;24.82;50.26
60854;BME280;48554;50.766;2.900;2022-07-12T08:26:22;101833.25;;;24.83;50.08
60854;BME280;48554;50.766;2.900;2022-07-12T08:28:43;101830.53;;;24.83;49.60
60854;BME280;48554;50.766;2.900;2022-07-12T08:31:03;101834.31;;;24.87;50.20
60854;BME280;48554;50.766;2.900;2022-07-12T08:33:23;101840.56;;;24.92;50.06
60854;BME280;48554;50.766;2.900;2022-07-12T08:35:44;101839.72;;;24.97;49.80
60854;BME280;48554;50.766;2.900;2022-07-12T08:38:04;101850.59;;;25.02;49.41
60854;BME280;48554;50.766;2.900;2022-07-12T08:40:24;101863.31;;;25.07;49.60
60854;BME280;48554;50.766;2.900;2022-07-12T08:42:44;101869.03;;;25.10;49.14
60854;BME280;48554;50.766;2.900;2022-07-12T08:45:05;101860.91;;;25.10;49.41
60854;BME280;48554;50.766;2.900;2022-07-12T08:47:25;101861.69;;;25.11;49.14
60854;BME280;48554;50.766;2.900;2022-07-12T08:50:14;101866.88;;;25.12;48.92
60854;BME280;48554;50.766;2.900;2022-07-12T08:52:38;101870.13;;;25.14;48.96
60854;BME280;48554;50.766;2.900;2022-07-12T08:54:58;101857.09;;;25.11;48.97
60854;BME280;48554;50.766;2.900;2022-07-12T08:57:31;101857.09;;;25.11;49.02
60854;BME280;48554;50.766;2.900;2022-07-12T08:59:58;101856.56;;;25.14;48.96
60854;BME280;48554;50.766;2.900;2022-07-12T09:02:19;101846.53;;;25.15;48.63
60854;BME280;48554;50.766;2.900;2022-07-12T09:04:39;101850.03;;;25.15;48.45
60854;BME280;48554;50.766;2.900;2022-07-12T09:07:13;101852.22;;;25.18;48.48
60854;BME280;48554;50.766;2.900;2022-07-12T09:09:34;101853.06;;;25.19;48.43
60854;BME280;48554;50.766;2.900;2022-07-12T09:11:55;101850.88;;;25.21;48.38
60854;BME280;48554;50.766;2.900;2022-07-12T09:14:18;101860.91;;;25.20;48.16
60854;BME280;48554;50.766;2.900;2022-07-12T09:16:38;101852.53;;;25.22;47.91
60854;BME280;48554;50.766;2.900;2022-07-12T09:19:15;101855.50;;;25.20;47.91
60854;BME280;48554;50.766;2.900;2022-07-12T09:21:36;101865.53;;;25.25;47.75
60854;BME280;48554;50.766;2.900;2022-07-12T09:23:57;101861.44;;;25.28;47.88
60854;BME280;48554;50.766;2.900;2022-07-12T09:26:18;101863.06;;;25.29;47.64
60854;BME280;48554;50.766;2.900;2022-07-12T09:28:38;101864.72;;;25.30;47.84
60854;BME280;48554;50.766;2.900;2022-07-12T09:30:59;101860.91;;;25.31;47.56
60854;BME280;48554;50.766;2.900;2022-07-12T09:33:20;101861.75;;;25.31;47.49
60854;BME280;48554;50.766;2.900;2022-07-12T09:35:40;101866.31;;;25.31;47.47
60854;BME280;48554;50.766;2.900;2022-07-12T09:38:08;101862.00;;;25.30;47.65
60854;BME280;48554;50.766;2.900;2022-07-12T09:40:28;101861.44;;;25.28;47.63
60854;BME280;48554;50.766;2.900;2022-07-12T09:42:49;101874.75;;;25.29;47.81
60854;BME280;48554;50.766;2.900;2022-07-12T09:45:10;101880.44;;;25.28;47.65
60854;BME280;48554;50.766;2.900;2022-07-12T09:47:31;101886.41;;;25.30;47.76
60854;BME280;48554;50.766;2.900;2022-07-12T09:49:53;101883.69;;;25.30;47.72
60854;BME280;48554;50.766;2.900;2022-07-12T09:52:24;101879.34;;;25.29;47.23
60854;BME280;48554;50.766;2.900;2022-07-12T09:54:45;101882.59;;;25.31;47.42
60854;BME280;48554;50.766;2.900;2022-07-12T09:57:13;101881.53;;;25.32;47.22
60854;BME280;48554;50.766;2.900;2022-07-12T09:59:34;101875.31;;;25.31;47.16
60854;BME280;48554;50.766;2.900;2022-07-12T10:01:56;101885.06;;;25.32;47.42
60854;BME280;48554;50.766;2.900;2022-07-12T10:04:20;101882.09;;;25.34;46.90
60854;BME280;48554;50.766;2.900;2022-07-12T10:06:41;101884.78;;;25.34;46.75
60854;BME280;48554;50.766;2.900;2022-07-12T10:09:02;101886.41;;;25.35;46.89
60854;BME280;48554;50.766;2.900;2022-07-12T10:11:24;101879.06;;;25.35;46.79
60854;BME280;48554;50.766;2.900;2022-07-12T10:13:45;101878.28;;;25.35;47.02
60854;BME280;48554;50.766;2.900;2022-07-12T10:16:08;101878.53;;;25.33;46.56
60854;BME280;48554;50.766;2.900;2022-07-12T10:18:30;101887.22;;;25.35;46.60
60854;BME280;48554;50.766;2.900;2022-07-12T10:20:50;101884.78;;;25.34;46.55
60854;BME280;48554;50.766;2.900;2022-07-12T10:25:40;101898.34;;;25.34;46.45
60854;BME280;48554;50.766;2.900;2022-07-12T10:28:01;101888.84;;;25.36;46.76
60854;BME280;48554;50.766;2.900;2022-07-12T10:30:22;101892.38;;;25.37;46.43
60854;BME280;48554;50.766;2.900;2022-07-12T10:32:44;101892.38;;;25.37;46.36
60854;BME280;48554;50.766;2.900;2022-07-12T10:35:06;101890.72;;;25.36;46.25
60854;BME280;48554;50.766;2.900;2022-07-12T10:37:28;101888.56;;;25.38;46.20
60854;BME280;48554;50.766;2.900;2022-07-12T10:42:30;101883.94;;;25.38;46.10
60854;BME280;48554;50.766;2.900;2022-07-12T10:44:50;101888.84;;;25.41;45.90
60854;BME280;48554;50.766;2.900;2022-07-12T10:47:11;101876.34;;;25.40;45.76
60854;BME280;48554;50.766;2.900;2022-07-12T10:49:33;101875.84;;;25.44;45.80
60854;BME280;48554;50.766;2.900;2022-07-12T10:54:32;101859.25;;;25.45;45.44
60854;BME280;48554;50.766;2.900;2022-07-12T10:56:55;101858.19;;;25.46;45.45
60854;BME280;48554;50.766;2.900;2022-07-12T10:59:16;101859.81;;;25.47;45.24
60854;BME280;48554;50.766;2.900;2022-07-12T11:01:36;101859.81;;;25.47;45.13
60854;BME280;48554;50.766;2.900;2022-07-12T11:04:10;101856.81;;;25.49;45.16
60854;BME280;48554;50.766;2.900;2022-07-12T11:06:37;101854.38;;;25.47;45.16
60854;BME280;48554;50.766;2.900;2022-07-12T11:08:58;101846.78;;;25.49;45.38
60854;BME280;48554;50.766;2.900;2022-07-12T11:11:19;101849.75;;;25.48;44.88
60854;BME280;48554;50.766;2.900;2022-07-12T11:13:40;101847.59;;;25.50;45.20
60854;BME280;48554;50.766;2.900;2022-07-12T11:16:00;101845.41;;;25.52;44.86
60854;BME280;48554;50.766;2.900;2022-07-12T11:18:31;101837.00;;;25.53;44.74
60854;BME280;48554;50.766;2.900;2022-07-12T11:20:55;101832.38;;;25.54;44.64
60854;BME280;48554;50.766;2.900;2022-07-12T11:23:16;101822.91;;;25.51;44.50
60854;BME280;48554;50.766;2.900;2022-07-12T11:25:36;101826.16;;;25.53;44.28
60854;BME280;48554;50.766;2.900;2022-07-12T11:27:57;101826.16;;;25.53;43.85
60854;BME280;48554;50.766;2.900;2022-07-12T11:30:17;101834.00;;;25.55;43.77
60854;BME280;48554;50.766;2.900;2022-07-12T11:32:42;101830.22;;;25.56;43.89
60854;BME280;48554;50.766;2.900;2022-07-12T11:35:03;101831.03;;;25.56;43.78
60854;BME280;48554;50.766;2.900;2022-07-12T11:37:23;101820.16;;;25.56;43.91
60854;BME280;48554;50.766;2.900;2022-07-12T11:39:43;101823.44;;;25.58;43.71
60854;BME280;48554;50.766;2.900;2022-07-12T11:42:05;101821.78;;;25.57;43.64
60854;BME280;48554;50.766;2.900;2022-07-12T11:44:47;101820.72;;;25.58;43.77
60854;BME280;48554;50.766;2.900;2022-07-12T11:47:08;101823.97;;;25.60;43.38
60854;BME280;48554;50.766;2.900;2022-07-12T11:49:28;101825.03;;;25.59;43.54
60854;BME280;48554;50.766;2.900;2022-07-12T11:51:48;101812.56;;;25.58;43.21
60854;BME280;48554;50.766;2.900;2022-07-12T11:54:09;101813.13;;;25.60;43.43
60854;BME280;48554;50.766;2.900;2022-07-12T11:56:30;101819.63;;;25.59;43.28
60854;BME280;48554;50.766;2.900;2022-07-12T11:58:56;101800.88;;;25.58;42.94
60854;BME280;48554;50.766;2.900;2022-07-12T12:01:16;101801.41;;;25.60;43.36
60854;BME280;48554;50.766;2.900;2022-07-12T12:03:44;101791.13;;;25.57;42.33
60854;BME280;48554;50.766;2.900;2022-07-12T12:06:06;101794.66;;;25.57;42.77
60854;BME280;48554;50.766;2.900;2022-07-12T12:08:26;101799.53;;;25.60;42.49
60854;BME280;48554;50.766;2.900;2022-07-12T12:11:13;101791.41;;;25.60;42.07
60854;BME280;48554;50.766;2.900;2022-07-12T12:13:33;101794.13;;;25.60;42.00
60854;BME280;48554;50.766;2.900;2022-07-12T12:16:01;101792.22;;;25.61;41.85
60854;BME280;48554;50.766;2.900;2022-07-12T12:18:35;101793.00;;;25.61;41.51
60854;BME280;48554;50.766;2.900;2022-07-12T12:21:00;101795.72;;;25.61;41.26
60854;BME280;48554;50.766;2.900;2022-07-12T12:23:21;101788.69;;;25.60;41.03
60854;BME280;48554;50.766;2.900;2022-07-12T12:25:41;101795.72;;;25.61;41.14